Hauptseite
METAR-TAF:

METAR-TAF

Flughäfen :

Stuttgart, Deutschland

Flughafen Stuttgart

Breite: 48-41N, Länge: 009-13E, Höhe: 396 m

Beobachtung

Neuester Wetterbericht von vor 39 Minuten, um 01:20 UTC
Wind 4 kt aus West/Nordwest
Temperatur 18°C
Luftfeuchtigkeit 73%
Luftdruck 1019 hPa
Sichtweite 10 km oder mehr
keine Wolken unter 1500 m und keine Kumulonimbus oder Gewitterwolken

METAR: EDDS 240120Z 29004KT CAVOK 18/13 Q1019

Zeit: 03:59 (01:59 UTC)

Prognose

Neuester Wetterbericht von vor 2 Stunden und 59 Minuten, um 23:00 UTC
Gültige Prognose vom 24 um 00 UTC bis 24 um 24 UTC
Wind 5 kt aus West
Sichtweite 10 km oder mehr
keine Wolken unter 1500 m und keine Kumulonimbus oder Gewitterwolken
Wahrscheinlichkeit 30% :
Zeitweise
vom 24 um 08 UTC bis 24 um 18 UTC
Wind 12 kt aus West

TAF: EDDS 232300Z 2400/2424 27005KT CAVOK PROB30 TEMPO 2408/2418 27012KT

Wetterbeobachtungen und Prognosen von mehr als 4000 Flughäfen (METAR und TAF Bericht).

Die verfügbaren Stationen werden durch gelbe und rote Markierungen auf der Karte dargestellt.

Führen Sie die Maus auf sie, um den Namen der Station zu sehen.

Darauf klicken, um die Beobachtung von Wetterbeobachtungen und Prognosen zu sehen.

Um die Karte zu ändern : klicken Sie auf den grünen Tasten mit einem schwarzen Kreuz Zum Vergrößern, auf den grünen Button mit einem Gedankenstrich zu verkleinern, oder auf die grünen Pfeile für benachbarte Karten.


METAR-TAF: